Latest Weather Observations for Bedout Island

IDW60801

Issued at 2:35 pm WST Saturday 25 October 2014 (issued every 30 minutes, with the page automatically refreshed every 10 minutes)

About weather observations | Map of weather stations | Latest weather observations for WA | Other Formats
Station Details ID: 004100 Name: BEDOUT ISLAND Lat: -19.59 Lon: 119.10 Height: 8.6 m
Data from the previous 72 hours. | See also: Recent months for locations in Western Australia
Date/Time
WST
Temp
°C
App
Temp
°C
Dew
Point
Rel
Hum
%
Delta-T
°C
Wind Press
QNH
hPa
Press
MSL
hPa
Rain
since 9 am
mm
Dir
 
Spd
km/h
Gust
km/h
Spd
kts
Gust
kts
25/02:30pm 30.0 32.6 24.6 73 3.8 N 19 22 10 12 1011.1 - -
25/02:00pm 30.2 33.1 24.4 71 4.0 N 17 20 9 11 1011.3 - -
25/01:30pm 30.3 33.2 24.4 70 4.1 NNW 17 20 9 11 1011.7 - -
25/01:00pm 29.6 32.9 23.8 71 4.0 NNW 13 17 7 9 1011.9 - -
25/12:30pm 30.6 34.3 24.5 70 4.3 NW 13 15 7 8 1012.2 - -
25/12:00pm 30.5 34.4 24.2 69 4.4 N 11 13 6 7 1012.6 1012.5 -
25/11:30am 31.0 35.1 24.6 68 4.5 E 11 11 6 6 1013.0 - -
25/11:00am 30.8 34.8 24.4 68 4.5 ESE 11 13 6 7 1013.1 - -
25/10:30am 30.8 34.8 24.4 68 4.5 ESE 11 13 6 7 1013.3 - -
25/10:00am 30.8 35.0 24.7 70 4.3 ESE 11 11 6 6 1013.5 - -
25/09:30am 29.9 34.1 24.1 71 4.0 SE 9 11 5 6 1013.5 - -
25/09:00am 29.6 33.6 23.8 71 4.0 SSW 9 13 5 7 1013.5 1013.4 -
25/08:30am 29.6 34.2 24.7 75 3.4 SSW 9 11 5 6 1013.7 - -
25/08:00am 28.7 32.5 24.0 76 3.3 SSW 11 17 6 9 1013.3 - -
25/07:30am 27.9 31.2 23.9 79 2.8 SW 13 15 7 8 1013.1 - -
25/07:00am 26.8 28.9 23.7 83 2.1 WSW 19 20 10 11 1012.5 - -
25/06:30am 25.9 27.7 23.2 85 1.8 W 19 22 10 12 1012.4 - -
25/06:00am 25.3 25.9 22.8 86 1.7 W 24 30 13 16 1011.9 1011.8 -
25/05:30am 25.2 25.0 22.7 86 1.7 W 28 32 15 17 1011.5 - -
25/05:00am 25.1 23.4 22.4 85 1.8 W 35 41 19 22 1010.9 - -
25/04:30am 25.3 23.6 22.4 84 1.9 W 35 41 19 22 1010.8 - -
25/04:00am 25.3 22.8 22.4 84 1.9 W 39 43 21 23 1010.6 - -
25/03:30am 25.4 23.3 22.3 83 2.1 W 37 43 20 23 1010.4 - -
25/03:00am 25.4 23.7 22.5 84 2.0 WNW 35 41 19 22 1010.5 1010.4 -
25/02:30am 25.4 24.4 22.7 85 1.8 W 32 37 17 20 1010.6 - -
25/02:00am 25.2 25.3 23.3 89 1.3 W 28 32 15 17 1010.6 - -
25/01:30am 25.2 25.6 23.8 92 1.0 WNW 28 32 15 17 1010.8 - -
25/01:00am 25.3 25.5 24.1 93 0.8 WNW 30 35 16 19 1010.9 - -
25/12:30am 25.4 26.2 24.4 94 0.7 WNW 28 33 15 18 1011.3 - -
25/12:00am 25.3 25.9 24.1 93 0.8 WNW 28 32 15 17 1011.8 1011.7 -
 
Date/Time
WST
Temp
°C
App
Temp
°C
Dew
Point
Rel
Hum
%
Delta-T
°C
Wind Press
QNH
hPa
Press
MSL
hPa
Rain
since 9 am
mm
Dir
 
Spd
km/h
Gust
km/h
Spd
kts
Gust
kts
24/11:30pm 25.4 26.0 24.2 93 0.8 NW 28 33 15 18 1011.9 - -
24/11:00pm 25.4 25.9 24.0 92 1.0 NW 28 32 15 17 1012.1 - -
24/10:30pm 25.3 26.5 23.9 92 1.0 NNW 24 28 13 15 1012.3 - -
24/10:00pm 25.3 26.8 23.7 91 1.1 NNW 22 26 12 14 1012.5 - -
24/09:30pm 25.4 26.5 23.6 90 1.2 NW 24 28 13 15 1012.5 - -
24/09:00pm 25.5 26.2 23.7 90 1.2 NW 26 28 14 15 1012.2 1012.1 -
24/08:30pm 25.6 26.0 23.8 90 1.2 NW 28 33 15 18 1012.0 - -
24/08:00pm 25.6 25.9 23.6 89 1.4 NNW 28 32 15 17 1011.6 - -
24/07:30pm 25.5 26.6 23.6 89 1.3 NNW 24 30 13 16 1011.2 - -
24/07:00pm 25.6 26.6 23.5 88 1.4 NNW 24 30 13 16 1010.8 - -
24/06:30pm 25.8 26.4 23.5 87 1.6 NNW 26 32 14 17 1010.5 - -
24/06:00pm 26.1 26.8 23.6 86 1.7 N 26 32 14 17 1010.1 1010.0 -
24/05:30pm 26.6 27.2 23.5 83 2.1 N 26 32 14 17 1009.7 - -
24/05:00pm 27.3 27.9 23.5 80 2.6 N 26 30 14 16 1009.4 - -
24/04:30pm 28.0 28.7 23.6 77 3.0 N 26 30 14 16 1009.3 - -
24/04:00pm 28.5 29.8 23.4 74 3.5 NNE 22 28 12 15 1009.3 - -
24/03:30pm 29.2 30.4 23.9 73 3.7 NNE 24 28 13 15 1009.4 - -
24/03:00pm 29.8 31.5 24.0 71 4.0 NNE 22 26 12 14 1009.6 1009.5 -
24/02:30pm 30.0 32.0 23.9 70 4.2 NNE 20 24 11 13 1009.8 - -
24/02:00pm 30.6 32.7 23.8 67 4.7 NNE 19 20 10 11 1010.1 - -
24/01:30pm 30.5 32.8 23.4 66 4.9 NNE 17 19 9 10 1010.1 - -
24/01:00pm 31.1 34.2 24.2 66 4.8 NE 15 17 8 9 1010.4 - -
24/12:30pm 30.7 34.1 24.1 68 4.6 NE 13 15 7 8 1010.7 - -
24/12:00pm 30.4 34.0 23.8 68 4.6 NNE 11 15 6 8 1010.9 1010.8 -
24/11:30am 29.4 33.0 23.1 69 4.3 NE 9 11 5 6 1010.8 - -
24/11:00am 30.1 34.1 23.8 69 4.4 N 9 11 5 6 1010.9 - -
24/10:30am 29.4 33.3 23.6 71 4.0 NW 9 15 5 8 1011.1 - -
24/10:00am 28.7 32.5 23.4 73 3.6 NW 9 13 5 7 1011.4 - -
24/09:30am 29.0 32.7 23.9 74 3.5 NNW 11 15 6 8 1011.5 - -
24/09:00am 28.6 32.3 23.9 75 3.2 NW 11 13 6 7 1011.4 1011.3 -
24/08:30am 28.1 31.4 23.9 78 2.9 NW 13 17 7 9 1011.4 - -
24/08:00am 27.8 31.7 24.2 81 2.5 NNW 11 15 6 8 1011.3 - -
24/07:30am 27.1 30.9 24.7 87 1.7 NW 13 17 7 9 1011.1 - -
24/07:00am 26.1 29.7 24.3 90 1.2 NW 13 17 7 9 1010.8 - -
24/06:30am 25.2 28.7 23.6 91 1.1 NNW 11 15 6 8 1010.9 - -
24/06:00am 24.7 26.8 23.1 91 1.1 NW 17 20 9 11 1010.4 1010.3 -
24/05:30am 24.6 26.2 22.8 90 1.2 NW 19 24 10 13 1009.8 - -
24/05:00am 24.7 25.4 22.9 90 1.2 NW 24 28 13 15 1009.3 - -
24/04:30am 24.7 25.4 22.9 90 1.2 NW 24 30 13 16 1009.1 - -
24/04:00am 24.7 26.3 22.9 90 1.2 NW 19 20 10 11 1009.2 - -
24/03:30am 24.8 26.8 22.9 89 1.3 NW 17 20 9 11 1009.1 - -
24/03:00am 24.8 26.2 22.9 89 1.3 NW 20 24 11 13 1009.1 1009.0 -
24/02:30am 24.9 26.4 23.1 90 1.2 NW 20 26 11 14 1009.0 - -
24/02:00am 24.9 26.6 23.0 89 1.3 NW 19 22 10 12 1009.5 - -
24/01:30am 24.9 27.3 23.0 89 1.3 NNW 15 19 8 10 1010.0 - -
24/01:00am 25.0 27.1 23.1 89 1.3 NW 17 20 9 11 1010.3 - -
24/12:30am 25.0 27.5 23.1 89 1.3 NNW 15 19 8 10 1010.6 - -
24/12:00am 25.1 27.6 23.2 89 1.3 N 15 17 8 9 1011.1 1011.0 -
 
Date/Time
WST
Temp
°C
App
Temp
°C
Dew
Point
Rel
Hum
%
Delta-T
°C
Wind Press
QNH
hPa
Press
MSL
hPa
Rain
since 9 am
mm
Dir
 
Spd
km/h
Gust
km/h
Spd
kts
Gust
kts
23/11:30pm 25.2 28.2 23.3 89 1.3 NNE 13 19 7 10 1011.7 - -
23/11:00pm 25.0 28.1 22.9 88 1.4 N 11 13 6 7 1011.6 - -
23/10:30pm 25.2 27.9 22.9 87 1.6 NNW 13 15 7 8 1011.6 - -
23/10:00pm 25.5 28.3 23.0 86 1.7 N 13 17 7 9 1011.7 - -
23/09:30pm 25.5 27.5 22.2 82 2.2 NNW 15 20 8 11 1011.7 - -
23/09:00pm 26.1 26.5 22.4 80 2.5 W 24 32 13 17 1011.0 1010.9 -
23/08:30pm 26.2 25.9 22.5 80 2.5 W 28 32 15 17 1010.3 - -
23/08:00pm 26.3 26.4 22.6 80 2.5 W 26 30 14 16 1010.2 - -
23/07:30pm 26.5 25.2 22.1 77 3.0 W 32 37 17 20 1009.6 - -
23/07:00pm 26.5 25.6 22.8 80 2.5 W 32 35 17 19 1009.3 - -
23/06:30pm 26.7 25.5 22.3 77 3.0 W 32 35 17 19 1009.0 - -
23/06:00pm 27.3 25.9 22.0 73 3.6 W 32 35 17 19 1008.7 1008.6 -
23/05:30pm 28.2 28.0 22.0 69 4.2 W 26 30 14 16 1008.6 - -
23/05:00pm 29.0 27.9 21.7 64 4.9 W 30 33 16 18 1008.4 - -
23/04:30pm 29.7 28.8 22.2 64 5.1 W 30 33 16 18 1008.2 - -
23/04:00pm 29.9 29.6 22.6 65 5.0 W 28 32 15 17 1008.3 - -
23/03:30pm 30.7 30.9 22.8 62 5.4 W 26 32 14 17 1008.5 - -
23/03:00pm 30.9 30.9 23.0 62 5.4 W 28 32 15 17 1008.6 1008.5 -
23/02:30pm 31.7 32.8 22.4 58 6.3 W 20 24 11 13 1008.8 - -
23/02:00pm 31.3 32.8 23.1 61 5.6 W 20 24 11 13 1009.0 - -
23/01:30pm 31.5 33.0 23.1 61 5.8 W 20 24 11 13 1009.3 - -
23/01:00pm 31.3 33.4 23.1 61 5.6 W 17 20 9 11 1009.7 - -
23/12:30pm 31.4 33.4 23.0 61 5.8 W 17 19 9 10 1010.1 - -
23/12:00pm 32.4 35.9 23.6 59 6.1 W 11 15 6 8 1010.5 1010.4 -
23/09:30am 31.9 32.2 20.5 51 7.6 WSW 19 20 10 11 1011.3 - -
23/09:00am 32.1 30.6 16.4 39 9.9 SSE 19 20 10 11 1011.0 1010.9 -
23/08:30am 31.7 32.2 20.0 50 7.7 S 17 20 9 11 1011.1 - -
23/08:00am 30.2 31.6 21.8 60 5.7 S 17 20 9 11 1011.0 - -
23/07:30am 29.5 30.7 22.2 65 4.9 SW 19 20 10 11 1010.6 - -
23/07:00am 28.5 28.1 20.2 60 5.5 S 22 24 12 13 1010.4 - -
23/06:30am 27.1 27.3 21.4 71 3.8 SW 22 24 12 13 1010.2 - -
23/06:00am 26.9 27.3 21.0 70 3.9 SW 20 24 11 13 1009.9 1009.8 -
23/05:30am 27.0 27.2 21.3 71 3.8 SW 22 28 12 15 1009.6 - -
23/05:00am 26.5 27.6 22.3 78 2.8 SW 20 24 11 13 1009.5 - -
23/04:30am 26.7 27.4 22.3 77 3.0 SW 22 24 12 13 1009.1 - -
23/04:00am 26.9 27.0 22.5 77 3.0 WSW 26 30 14 16 1008.9 - -
23/03:30am 26.9 26.8 22.3 76 3.1 SW 26 30 14 16 1008.8 - -
23/03:00am 26.8 26.9 22.6 78 2.8 SW 26 30 14 16 1008.7 1008.6 -
23/02:30am 26.3 26.5 22.8 81 2.4 WSW 26 30 14 16 1008.7 - -
23/02:00am 26.6 26.5 22.9 80 2.5 WSW 28 35 15 19 1008.7 - -
23/01:30am 26.5 26.5 23.0 81 2.4 WSW 28 32 15 17 1008.9 - -
23/01:00am 26.6 26.4 22.7 79 2.6 WSW 28 30 15 16 1009.0 - -
23/12:30am 26.6 26.6 22.4 78 2.8 WSW 26 30 14 16 1009.2 - -
23/12:00am 26.5 26.8 23.0 81 2.4 WSW 26 28 14 15 1009.6 1009.5 -
 
Date/Time
WST
Temp
°C
App
Temp
°C
Dew
Point
Rel
Hum
%
Delta-T
°C
Wind Press
QNH
hPa
Press
MSL
hPa
Rain
since 9 am
mm
Dir
 
Spd
km/h
Gust
km/h
Spd
kts
Gust
kts
22/11:30pm 26.5 25.0 22.8 80 2.5 W 35 41 19 22 1009.8 - -
22/11:00pm 26.6 25.4 22.7 79 2.6 W 33 41 18 22 1010.2 - -
22/10:30pm 26.6 24.5 22.4 78 2.8 W 37 43 20 23 1010.3 - -
22/10:00pm 26.8 25.5 22.4 77 3.0 W 33 39 18 21 1010.5 - -
22/09:30pm 26.8 24.5 22.0 75 3.2 W 37 43 20 23 1010.6 - -
22/09:00pm 26.7 24.6 22.3 77 3.0 W 37 41 20 22 1010.8 1010.7 -
22/08:30pm 26.7 25.3 22.3 77 3.0 W 33 37 18 20 1010.7 - -
22/08:00pm 26.8 24.7 22.4 77 3.0 W 37 43 20 23 1010.5 - -
22/07:30pm 27.0 24.9 22.4 76 3.1 W 37 41 20 22 1010.3 - -
22/07:00pm 26.8 24.8 22.6 78 2.8 W 37 43 20 23 1010.1 - -
22/06:30pm 26.8 24.8 22.6 78 2.8 W 37 41 20 22 1009.8 - -
22/06:00pm 26.8 25.6 22.6 78 2.8 W 33 39 18 21 1009.6 1009.5 -
22/05:00pm 28.6 28.6 23.1 72 3.8 W 28 33 15 18 1009.2 - -
22/04:30pm 29.4 30.4 22.9 68 4.4 W 22 26 12 14 1009.3 - -
22/04:00pm 30.1 31.3 22.5 63 5.2 WNW 20 24 11 13 1009.4 - -
22/03:30pm 30.9 32.1 22.5 61 5.7 WNW 20 24 11 13 1009.6 - -
22/03:00pm 31.6 33.2 23.2 61 5.8 WNW 20 22 11 12 1009.8 1009.7 -

Other Formats:

Comma delimited format used in spreadsheet applications
http://www.bom.gov.au/fwo/IDW60801/IDW60801.94310.axf

JavaScript Object Notation format (JSON) in row-major order
http://www.bom.gov.au/fwo/IDW60801/IDW60801.94310.json